sensor_id;sensor_type;location;lat;lon;timestamp;P1;durP1;ratioP1;P2;durP2;ratioP2
60257;SDS011;46115;44.484;11.314;2023-01-31T00:07:14;46.93;;;21.27;;
60257;SDS011;46115;44.484;11.314;2023-01-31T00:11:18;43.90;;;21.05;;
60257;SDS011;46115;44.484;11.314;2023-01-31T00:15:22;43.92;;;21.17;;
60257;SDS011;46115;44.484;11.314;2023-01-31T00:19:25;39.65;;;20.25;;
60257;SDS011;46115;44.484;11.314;2023-01-31T00:27:30;43.33;;;20.23;;
60257;SDS011;46115;44.484;11.314;2023-01-31T00:31:33;50.17;;;25.73;;
60257;SDS011;46115;44.484;11.314;2023-01-31T00:35:37;41.38;;;21.92;;
60257;SDS011;46115;44.484;11.314;2023-01-31T00:39:41;42.60;;;19.98;;
60257;SDS011;46115;44.484;11.314;2023-01-31T00:43:44;40.30;;;21.48;;
60257;SDS011;46115;44.484;11.314;2023-01-31T00:47:47;50.55;;;22.75;;
60257;SDS011;46115;44.484;11.314;2023-01-31T00:51:49;53.00;;;25.50;;
60257;SDS011;46115;44.484;11.314;2023-01-31T00:59:56;54.28;;;25.15;;
60257;SDS011;46115;44.484;11.314;2023-01-31T01:03:59;51.70;;;26.92;;
60257;SDS011;46115;44.484;11.314;2023-01-31T01:08:07;48.28;;;25.20;;
60257;SDS011;46115;44.484;11.314;2023-01-31T01:12:09;46.00;;;23.73;;
60257;SDS011;46115;44.484;11.314;2023-01-31T01:16:15;51.58;;;24.92;;
60257;SDS011;46115;44.484;11.314;2023-01-31T01:20:20;49.22;;;26.45;;
60257;SDS011;46115;44.484;11.314;2023-01-31T01:28:24;54.63;;;29.42;;
60257;SDS011;46115;44.484;11.314;2023-01-31T01:32:28;51.13;;;25.25;;
60257;SDS011;46115;44.484;11.314;2023-01-31T01:36:31;44.38;;;22.65;;
60257;SDS011;46115;44.484;11.314;2023-01-31T01:40:34;48.60;;;25.45;;
60257;SDS011;46115;44.484;11.314;2023-01-31T01:49:02;44.35;;;24.60;;
60257;SDS011;46115;44.484;11.314;2023-01-31T01:53:13;51.53;;;26.83;;
60257;SDS011;46115;44.484;11.314;2023-01-31T01:57:20;51.50;;;25.77;;
60257;SDS011;46115;44.484;11.314;2023-01-31T02:01:28;45.47;;;26.20;;
60257;SDS011;46115;44.484;11.314;2023-01-31T02:05:38;46.22;;;24.25;;
60257;SDS011;46115;44.484;11.314;2023-01-31T02:09:46;47.28;;;23.65;;
60257;SDS011;46115;44.484;11.314;2023-01-31T02:13:56;35.60;;;20.13;;
60257;SDS011;46115;44.484;11.314;2023-01-31T02:18:02;36.28;;;20.35;;
60257;SDS011;46115;44.484;11.314;2023-01-31T02:22:09;43.45;;;22.05;;
60257;SDS011;46115;44.484;11.314;2023-01-31T02:26:22;39.77;;;20.90;;
60257;SDS011;46115;44.484;11.314;2023-01-31T02:30:52;41.00;;;21.52;;
60257;SDS011;46115;44.484;11.314;2023-01-31T02:35:11;36.13;;;19.30;;
60257;SDS011;46115;44.484;11.314;2023-01-31T02:39:20;33.38;;;18.77;;
60257;SDS011;46115;44.484;11.314;2023-01-31T02:43:30;36.45;;;18.88;;
60257;SDS011;46115;44.484;11.314;2023-01-31T02:48:02;40.47;;;19.97;;
60257;SDS011;46115;44.484;11.314;2023-01-31T02:52:17;36.35;;;20.38;;
60257;SDS011;46115;44.484;11.314;2023-01-31T02:56:31;34.58;;;18.45;;
60257;SDS011;46115;44.484;11.314;2023-01-31T03:00:35;33.55;;;17.58;;
60257;SDS011;46115;44.484;11.314;2023-01-31T03:04:40;35.35;;;18.85;;
60257;SDS011;46115;44.484;11.314;2023-01-31T03:08:44;36.88;;;18.88;;
60257;SDS011;46115;44.484;11.314;2023-01-31T03:12:49;31.15;;;18.17;;
60257;SDS011;46115;44.484;11.314;2023-01-31T03:17:03;32.42;;;17.73;;
60257;SDS011;46115;44.484;11.314;2023-01-31T03:21:38;29.27;;;17.88;;
60257;SDS011;46115;44.484;11.314;2023-01-31T03:25:45;32.33;;;18.30;;
60257;SDS011;46115;44.484;11.314;2023-01-31T03:29:50;36.90;;;17.95;;
60257;SDS011;46115;44.484;11.314;2023-01-31T03:33:59;31.30;;;17.48;;
60257;SDS011;46115;44.484;11.314;2023-01-31T03:38:08;30.83;;;17.20;;
60257;SDS011;46115;44.484;11.314;2023-01-31T03:42:18;30.42;;;16.70;;
60257;SDS011;46115;44.484;11.314;2023-01-31T03:46:26;31.25;;;16.23;;
60257;SDS011;46115;44.484;11.314;2023-01-31T03:50:36;30.95;;;17.25;;
60257;SDS011;46115;44.484;11.314;2023-01-31T03:54:43;30.35;;;15.73;;
60257;SDS011;46115;44.484;11.314;2023-01-31T03:58:51;25.63;;;15.32;;
60257;SDS011;46115;44.484;11.314;2023-01-31T04:03:05;28.90;;;13.88;;
60257;SDS011;46115;44.484;11.314;2023-01-31T04:07:12;24.42;;;12.82;;
60257;SDS011;46115;44.484;11.314;2023-01-31T04:11:15;25.25;;;13.73;;
60257;SDS011;46115;44.484;11.314;2023-01-31T04:15:23;21.80;;;12.55;;
60257;SDS011;46115;44.484;11.314;2023-01-31T04:19:26;20.80;;;12.32;;
60257;SDS011;46115;44.484;11.314;2023-01-31T04:27:30;23.80;;;12.00;;
60257;SDS011;46115;44.484;11.314;2023-01-31T04:35:38;21.40;;;11.07;;
60257;SDS011;46115;44.484;11.314;2023-01-31T04:39:41;21.30;;;10.75;;
60257;SDS011;46115;44.484;11.314;2023-01-31T04:43:46;20.00;;;11.05;;
60257;SDS011;46115;44.484;11.314;2023-01-31T04:51:51;20.02;;;10.90;;
60257;SDS011;46115;44.484;11.314;2023-01-31T04:59:56;20.10;;;9.90;;
60257;SDS011;46115;44.484;11.314;2023-01-31T05:08:01;18.52;;;10.68;;
60257;SDS011;46115;44.484;11.314;2023-01-31T05:16:08;19.30;;;10.90;;
60257;SDS011;46115;44.484;11.314;2023-01-31T05:20:13;18.02;;;10.55;;
60257;SDS011;46115;44.484;11.314;2023-01-31T05:24:15;19.10;;;10.57;;
60257;SDS011;46115;44.484;11.314;2023-01-31T05:28:19;17.83;;;10.52;;
60257;SDS011;46115;44.484;11.314;2023-01-31T05:32:22;17.55;;;10.45;;
60257;SDS011;46115;44.484;11.314;2023-01-31T05:40:28;19.90;;;10.35;;
60257;SDS011;46115;44.484;11.314;2023-01-31T05:44:31;16.88;;;10.35;;
60257;SDS011;46115;44.484;11.314;2023-01-31T05:52:36;18.20;;;10.53;;
60257;SDS011;46115;44.484;11.314;2023-01-31T05:56:39;18.63;;;9.95;;
60257;SDS011;46115;44.484;11.314;2023-01-31T06:04:43;16.77;;;10.23;;
60257;SDS011;46115;44.484;11.314;2023-01-31T06:08:46;18.17;;;10.45;;
60257;SDS011;46115;44.484;11.314;2023-01-31T06:12:49;17.15;;;10.82;;
60257;SDS011;46115;44.484;11.314;2023-01-31T06:20:53;17.57;;;10.47;;
60257;SDS011;46115;44.484;11.314;2023-01-31T06:28:59;22.27;;;10.13;;
60257;SDS011;46115;44.484;11.314;2023-01-31T06:33:01;18.67;;;10.15;;
60257;SDS011;46115;44.484;11.314;2023-01-31T06:41:10;19.98;;;11.00;;
60257;SDS011;46115;44.484;11.314;2023-01-31T06:45:13;18.70;;;10.57;;
60257;SDS011;46115;44.484;11.314;2023-01-31T06:53:18;17.55;;;10.32;;
60257;SDS011;46115;44.484;11.314;2023-01-31T06:57:22;19.63;;;11.35;;
60257;SDS011;46115;44.484;11.314;2023-01-31T07:01:24;21.10;;;10.70;;
60257;SDS011;46115;44.484;11.314;2023-01-31T07:09:29;20.40;;;10.57;;
60257;SDS011;46115;44.484;11.314;2023-01-31T07:13:33;20.38;;;11.10;;
60257;SDS011;46115;44.484;11.314;2023-01-31T07:17:35;20.33;;;11.52;;
60257;SDS011;46115;44.484;11.314;2023-01-31T07:25:40;18.77;;;10.30;;
60257;SDS011;46115;44.484;11.314;2023-01-31T07:29:43;19.98;;;10.73;;
60257;SDS011;46115;44.484;11.314;2023-01-31T07:33:46;20.27;;;10.77;;
60257;SDS011;46115;44.484;11.314;2023-01-31T07:37:50;19.15;;;10.57;;
60257;SDS011;46115;44.484;11.314;2023-01-31T07:41:52;17.30;;;10.40;;
60257;SDS011;46115;44.484;11.314;2023-01-31T07:45:59;20.27;;;10.77;;
60257;SDS011;46115;44.484;11.314;2023-01-31T07:50:02;17.25;;;10.85;;
60257;SDS011;46115;44.484;11.314;2023-01-31T07:54:04;15.13;;;10.05;;
60257;SDS011;46115;44.484;11.314;2023-01-31T07:58:07;15.95;;;10.52;;
60257;SDS011;46115;44.484;11.314;2023-01-31T08:06:31;16.77;;;10.60;;
60257;SDS011;46115;44.484;11.314;2023-01-31T08:14:36;18.48;;;10.88;;
60257;SDS011;46115;44.484;11.314;2023-01-31T08:22:42;18.55;;;11.07;;
60257;SDS011;46115;44.484;11.314;2023-01-31T08:30:46;13.70;;;11.03;;
60257;SDS011;46115;44.484;11.314;2023-01-31T08:34:51;14.98;;;10.77;;
60257;SDS011;46115;44.484;11.314;2023-01-31T08:38:53;16.25;;;11.50;;
60257;SDS011;46115;44.484;11.314;2023-01-31T08:42:57;14.23;;;10.50;;
60257;SDS011;46115;44.484;11.314;2023-01-31T08:47:01;14.43;;;10.45;;
60257;SDS011;46115;44.484;11.314;2023-01-31T08:51:06;13.30;;;10.65;;
60257;SDS011;46115;44.484;11.314;2023-01-31T08:55:10;13.48;;;10.20;;
60257;SDS011;46115;44.484;11.314;2023-01-31T08:59:13;15.57;;;10.52;;
60257;SDS011;46115;44.484;11.314;2023-01-31T09:03:16;12.50;;;10.40;;
60257;SDS011;46115;44.484;11.314;2023-01-31T09:07:19;11.95;;;9.82;;
60257;SDS011;46115;44.484;11.314;2023-01-31T09:11:22;11.13;;;9.93;;
60257;SDS011;46115;44.484;11.314;2023-01-31T09:15:24;10.50;;;9.40;;
60257;SDS011;46115;44.484;11.314;2023-01-31T09:19:26;13.35;;;9.68;;
60257;SDS011;46115;44.484;11.314;2023-01-31T09:23:30;10.82;;;9.70;;
60257;SDS011;46115;44.484;11.314;2023-01-31T09:27:33;11.38;;;10.00;;
60257;SDS011;46115;44.484;11.314;2023-01-31T09:31:37;11.38;;;9.50;;
60257;SDS011;46115;44.484;11.314;2023-01-31T09:35:40;12.20;;;9.90;;
60257;SDS011;46115;44.484;11.314;2023-01-31T09:39:43;14.15;;;10.73;;
60257;SDS011;46115;44.484;11.314;2023-01-31T09:43:47;12.82;;;11.48;;
60257;SDS011;46115;44.484;11.314;2023-01-31T09:47:54;17.10;;;12.88;;
60257;SDS011;46115;44.484;11.314;2023-01-31T09:51:59;19.40;;;13.95;;
60257;SDS011;46115;44.484;11.314;2023-01-31T09:56:09;25.38;;;18.85;;
60257;SDS011;46115;44.484;11.314;2023-01-31T10:00:21;32.50;;;22.65;;
60257;SDS011;46115;44.484;11.314;2023-01-31T10:04:32;36.22;;;21.27;;
60257;SDS011;46115;44.484;11.314;2023-01-31T10:08:46;29.42;;;20.65;;
60257;SDS011;46115;44.484;11.314;2023-01-31T10:12:53;29.83;;;21.20;;
60257;SDS011;46115;44.484;11.314;2023-01-31T10:17:00;28.40;;;19.50;;
60257;SDS011;46115;44.484;11.314;2023-01-31T10:21:08;32.17;;;20.45;;
60257;SDS011;46115;44.484;11.314;2023-01-31T10:25:19;29.13;;;18.50;;
60257;SDS011;46115;44.484;11.314;2023-01-31T10:29:30;30.17;;;19.50;;
60257;SDS011;46115;44.484;11.314;2023-01-31T10:33:37;28.55;;;19.20;;
60257;SDS011;46115;44.484;11.314;2023-01-31T10:37:45;27.70;;;18.98;;
60257;SDS011;46115;44.484;11.314;2023-01-31T10:41:58;31.52;;;19.67;;
60257;SDS011;46115;44.484;11.314;2023-01-31T10:46:09;32.63;;;19.38;;
60257;SDS011;46115;44.484;11.314;2023-01-31T10:50:13;33.63;;;21.02;;
60257;SDS011;46115;44.484;11.314;2023-01-31T10:54:20;28.45;;;19.35;;
60257;SDS011;46115;44.484;11.314;2023-01-31T10:58:34;31.10;;;20.45;;
60257;SDS011;46115;44.484;11.314;2023-01-31T11:02:39;34.22;;;20.27;;
60257;SDS011;46115;44.484;11.314;2023-01-31T11:06:41;39.33;;;21.27;;
60257;SDS011;46115;44.484;11.314;2023-01-31T11:10:49;31.73;;;20.13;;
60257;SDS011;46115;44.484;11.314;2023-01-31T11:15:02;31.88;;;20.15;;
60257;SDS011;46115;44.484;11.314;2023-01-31T11:19:12;36.13;;;20.55;;
60257;SDS011;46115;44.484;11.314;2023-01-31T11:23:20;34.03;;;22.43;;
60257;SDS011;46115;44.484;11.314;2023-01-31T11:27:26;38.33;;;23.05;;
60257;SDS011;46115;44.484;11.314;2023-01-31T11:31:33;36.00;;;20.92;;
60257;SDS011;46115;44.484;11.314;2023-01-31T11:35:40;36.25;;;22.08;;
60257;SDS011;46115;44.484;11.314;2023-01-31T11:39:53;33.92;;;20.67;;
60257;SDS011;46115;44.484;11.314;2023-01-31T11:44:13;38.10;;;21.35;;
60257;SDS011;46115;44.484;11.314;2023-01-31T11:48:17;31.52;;;20.52;;
60257;SDS011;46115;44.484;11.314;2023-01-31T11:52:28;34.90;;;20.27;;
60257;SDS011;46115;44.484;11.314;2023-01-31T11:56:33;30.50;;;20.38;;
60257;SDS011;46115;44.484;11.314;2023-01-31T12:00:38;35.20;;;21.08;;
60257;SDS011;46115;44.484;11.314;2023-01-31T12:04:52;32.60;;;20.33;;
60257;SDS011;46115;44.484;11.314;2023-01-31T12:08:57;31.83;;;20.13;;
60257;SDS011;46115;44.484;11.314;2023-01-31T12:13:02;34.65;;;20.70;;
60257;SDS011;46115;44.484;11.314;2023-01-31T12:21:21;29.67;;;19.90;;
60257;SDS011;46115;44.484;11.314;2023-01-31T12:25:38;30.40;;;19.48;;
60257;SDS011;46115;44.484;11.314;2023-01-31T12:29:55;31.85;;;19.33;;
60257;SDS011;46115;44.484;11.314;2023-01-31T12:34:22;28.42;;;18.65;;
60257;SDS011;46115;44.484;11.314;2023-01-31T12:38:48;32.53;;;19.63;;
60257;SDS011;46115;44.484;11.314;2023-01-31T12:43:04;30.98;;;18.95;;
60257;SDS011;46115;44.484;11.314;2023-01-31T12:47:33;30.92;;;18.48;;
60257;SDS011;46115;44.484;11.314;2023-01-31T12:51:47;29.80;;;17.90;;
60257;SDS011;46115;44.484;11.314;2023-01-31T12:56:05;31.70;;;19.13;;
60257;SDS011;46115;44.484;11.314;2023-01-31T13:00:30;27.65;;;17.98;;
60257;SDS011;46115;44.484;11.314;2023-01-31T13:04:39;32.15;;;18.67;;
60257;SDS011;46115;44.484;11.314;2023-01-31T13:08:48;29.67;;;17.92;;
60257;SDS011;46115;44.484;11.314;2023-01-31T13:12:55;27.80;;;18.90;;
60257;SDS011;46115;44.484;11.314;2023-01-31T13:17:01;27.25;;;18.13;;
60257;SDS011;46115;44.484;11.314;2023-01-31T13:21:07;32.58;;;19.02;;
60257;SDS011;46115;44.484;11.314;2023-01-31T13:25:14;29.40;;;18.77;;
60257;SDS011;46115;44.484;11.314;2023-01-31T13:29:23;32.20;;;19.67;;
60257;SDS011;46115;44.484;11.314;2023-01-31T13:33:33;29.42;;;18.52;;
60257;SDS011;46115;44.484;11.314;2023-01-31T13:37:38;27.23;;;17.63;;
60257;SDS011;46115;44.484;11.314;2023-01-31T13:41:43;31.48;;;18.25;;
60257;SDS011;46115;44.484;11.314;2023-01-31T13:49:54;27.42;;;17.30;;
60257;SDS011;46115;44.484;11.314;2023-01-31T13:54:00;28.77;;;17.65;;
60257;SDS011;46115;44.484;11.314;2023-01-31T13:58:12;28.08;;;17.30;;
60257;SDS011;46115;44.484;11.314;2023-01-31T14:02:20;28.83;;;17.48;;
60257;SDS011;46115;44.484;11.314;2023-01-31T14:06:25;25.13;;;16.17;;
60257;SDS011;46115;44.484;11.314;2023-01-31T14:15:45;29.38;;;18.17;;
60257;SDS011;46115;44.484;11.314;2023-01-31T14:19:59;28.15;;;17.77;;
60257;SDS011;46115;44.484;11.314;2023-01-31T14:24:16;34.40;;;18.90;;
60257;SDS011;46115;44.484;11.314;2023-01-31T14:28:20;29.20;;;18.35;;
60257;SDS011;46115;44.484;11.314;2023-01-31T14:32:24;31.40;;;18.92;;
60257;SDS011;46115;44.484;11.314;2023-01-31T14:36:43;31.85;;;18.50;;
60257;SDS011;46115;44.484;11.314;2023-01-31T14:41:01;30.27;;;18.42;;
60257;SDS011;46115;44.484;11.314;2023-01-31T14:45:15;28.17;;;17.50;;
60257;SDS011;46115;44.484;11.314;2023-01-31T14:49:30;29.75;;;18.38;;
60257;SDS011;46115;44.484;11.314;2023-01-31T14:58:21;33.13;;;18.02;;
60257;SDS011;46115;44.484;11.314;2023-01-31T15:02:39;30.17;;;18.35;;
60257;SDS011;46115;44.484;11.314;2023-01-31T15:06:47;29.63;;;17.65;;
60257;SDS011;46115;44.484;11.314;2023-01-31T15:10:56;26.67;;;16.65;;
60257;SDS011;46115;44.484;11.314;2023-01-31T15:15:03;28.55;;;17.90;;
60257;SDS011;46115;44.484;11.314;2023-01-31T15:19:20;30.75;;;18.38;;
60257;SDS011;46115;44.484;11.314;2023-01-31T15:23:26;30.45;;;18.42;;
60257;SDS011;46115;44.484;11.314;2023-01-31T15:27:30;26.92;;;17.05;;
60257;SDS011;46115;44.484;11.314;2023-01-31T15:31:41;30.60;;;18.48;;
60257;SDS011;46115;44.484;11.314;2023-01-31T15:35:45;31.27;;;18.20;;
60257;SDS011;46115;44.484;11.314;2023-01-31T15:39:53;32.05;;;18.13;;
60257;SDS011;46115;44.484;11.314;2023-01-31T15:44:09;25.63;;;16.48;;
60257;SDS011;46115;44.484;11.314;2023-01-31T15:48:15;30.75;;;18.05;;
60257;SDS011;46115;44.484;11.314;2023-01-31T15:52:19;29.67;;;17.50;;
60257;SDS011;46115;44.484;11.314;2023-01-31T15:56:23;26.52;;;17.35;;
60257;SDS011;46115;44.484;11.314;2023-01-31T16:00:29;26.67;;;15.93;;
60257;SDS011;46115;44.484;11.314;2023-01-31T16:04:33;28.42;;;16.70;;
60257;SDS011;46115;44.484;11.314;2023-01-31T16:08:41;27.92;;;17.70;;
60257;SDS011;46115;44.484;11.314;2023-01-31T16:16:49;28.27;;;17.42;;
60257;SDS011;46115;44.484;11.314;2023-01-31T16:20:55;29.77;;;18.10;;
60257;SDS011;46115;44.484;11.314;2023-01-31T16:24:58;32.50;;;17.67;;
60257;SDS011;46115;44.484;11.314;2023-01-31T16:29:05;27.90;;;17.88;;
60257;SDS011;46115;44.484;11.314;2023-01-31T16:33:14;30.33;;;18.48;;
60257;SDS011;46115;44.484;11.314;2023-01-31T16:37:19;31.08;;;18.05;;
60257;SDS011;46115;44.484;11.314;2023-01-31T16:41:39;32.60;;;19.15;;
60257;SDS011;46115;44.484;11.314;2023-01-31T23:06:09;10.95;;;4.45;;
60257;SDS011;46115;44.484;11.314;2023-01-31T23:10:12;8.60;;;4.60;;
60257;SDS011;46115;44.484;11.314;2023-01-31T23:14:14;8.85;;;4.75;;
60257;SDS011;46115;44.484;11.314;2023-01-31T23:18:16;7.20;;;4.30;;
60257;SDS011;46115;44.484;11.314;2023-01-31T23:22:20;7.68;;;3.83;;
60257;SDS011;46115;44.484;11.314;2023-01-31T23:26:22;9.50;;;4.00;;
60257;SDS011;46115;44.484;11.314;2023-01-31T23:30:24;7.47;;;4.07;;
60257;SDS011;46115;44.484;11.314;2023-01-31T23:34:27;7.35;;;3.95;;
60257;SDS011;46115;44.484;11.314;2023-01-31T23:42:33;7.50;;;4.32;;
60257;SDS011;46115;44.484;11.314;2023-01-31T23:50:38;7.97;;;4.23;;
60257;SDS011;46115;44.484;11.314;2023-01-31T23:54:41;7.80;;;3.97;;
60257;SDS011;46115;44.484;11.314;2023-01-31T23:58:44;9.63;;;4.28;;
